createdAt,value
2023-02-17T00:00:25.829Z,48.16
2023-02-17T00:02:56.463Z,48.20
2023-02-17T00:05:22.811Z,48.18
2023-02-17T00:07:49.224Z,48.24
2023-02-17T00:10:15.563Z,48.32
2023-02-17T00:12:41.884Z,48.17
2023-02-17T00:15:08.332Z,48.24
2023-02-17T00:17:34.669Z,48.36
2023-02-17T00:20:01.017Z,48.19
2023-02-17T00:22:27.335Z,48.07
2023-02-17T00:24:53.668Z,48.38
2023-02-17T00:27:20.001Z,48.30
2023-02-17T00:29:46.350Z,48.38
2023-02-17T00:32:12.887Z,48.26
2023-02-17T00:34:39.312Z,48.26
2023-02-17T00:37:06.710Z,48.38
2023-02-17T00:39:33.234Z,48.39
2023-02-17T00:41:59.620Z,48.17
2023-02-17T00:44:28.896Z,48.24
2023-02-17T00:46:55.298Z,48.13
2023-02-17T00:49:22.783Z,48.31
2023-02-17T00:51:49.118Z,48.14
2023-02-17T00:54:15.482Z,48.26
2023-02-17T00:56:41.808Z,48.26
2023-02-17T00:59:08.172Z,48.18
2023-02-17T01:01:34.537Z,48.30
2023-02-17T01:04:00.897Z,48.16
2023-02-17T01:06:31.484Z,48.27
2023-02-17T01:08:57.821Z,48.13
2023-02-17T01:11:24.979Z,48.09
2023-02-17T01:13:51.315Z,48.07
2023-02-17T01:16:22.491Z,48.08
2023-02-17T01:18:48.929Z,48.18
2023-02-17T01:21:19.128Z,47.95
2023-02-17T01:23:45.529Z,48.16
2023-02-17T01:26:15.456Z,48.04
2023-02-17T01:28:41.796Z,48.12
2023-02-17T01:31:08.526Z,47.99
2023-02-17T01:33:34.941Z,48.14
2023-02-17T01:36:01.923Z,48.10
2023-02-17T01:38:28.292Z,48.03
2023-02-17T01:40:55.598Z,48.04
2023-02-17T01:43:21.943Z,48.04
2023-02-17T01:45:54.954Z,47.93
2023-02-17T01:48:21.758Z,48.11
2023-02-17T01:50:52.865Z,48.07
2023-02-17T01:53:20.806Z,47.89
2023-02-17T01:55:47.201Z,48.08
2023-02-17T01:58:14.127Z,48.10
2023-02-17T02:00:40.473Z,47.99
2023-02-17T02:03:06.923Z,48.12
2023-02-17T02:05:33.258Z,48.03
2023-02-17T02:07:59.747Z,48.12
2023-02-17T02:10:26.117Z,47.83
2023-02-17T02:12:52.678Z,48.06
2023-02-17T02:15:19.987Z,48.17
2023-02-17T02:18:05.019Z,48.01
2023-02-17T02:20:57.229Z,48.00
2023-02-17T02:23:35.829Z,48.04
2023-02-17T02:26:10.754Z,48.22
2023-02-17T02:28:44.706Z,48.11
2023-02-17T02:31:30.359Z,48.13
2023-02-17T02:33:57.031Z,48.02
2023-02-17T02:36:30.205Z,47.93
2023-02-17T02:39:16.793Z,48.10
2023-02-17T02:41:44.240Z,48.04
2023-02-17T02:44:13.613Z,48.13
2023-02-17T02:46:39.963Z,48.13
2023-02-17T02:49:06.276Z,47.94
2023-02-17T02:51:39.212Z,48.11
2023-02-17T02:54:31.763Z,48.15
2023-02-17T06:28:56.167Z,50.68
2023-02-17T06:31:22.642Z,51.16
2023-02-17T06:33:49.043Z,50.43
2023-02-17T06:36:15.380Z,50.45
2023-02-17T06:38:41.727Z,50.30
2023-02-17T06:41:08.071Z,50.36
2023-02-17T06:43:34.407Z,50.40
2023-02-17T06:46:00.790Z,50.50
2023-02-17T06:48:27.208Z,50.67
2023-02-17T06:50:53.548Z,50.62
2023-02-17T06:53:19.875Z,50.18
2023-02-17T06:55:46.240Z,49.57
2023-02-17T06:58:12.577Z,49.08
2023-02-17T07:00:38.986Z,48.61
2023-02-17T07:03:05.420Z,48.26
2023-02-17T07:05:31.805Z,47.01
2023-02-17T07:07:58.551Z,47.43
2023-02-17T07:10:24.939Z,47.59
2023-02-17T07:12:51.288Z,48.10
2023-02-17T07:15:17.613Z,47.12
2023-02-17T07:17:43.940Z,46.82
2023-02-17T07:20:10.422Z,46.99
2023-02-17T07:22:36.832Z,47.20
2023-02-17T07:25:03.298Z,47.11
2023-02-17T07:27:29.634Z,47.38
2023-02-17T07:29:56.032Z,47.32
2023-02-17T07:32:22.412Z,47.24
2023-02-17T07:34:48.782Z,47.49
2023-02-17T07:37:15.125Z,47.71
2023-02-17T07:39:41.445Z,47.78
2023-02-17T07:42:07.797Z,47.77
2023-02-17T07:44:34.136Z,47.87
2023-02-17T07:47:00.464Z,48.00
2023-02-17T07:49:26.822Z,48.12
2023-02-17T07:51:53.176Z,47.96
2023-02-17T07:54:19.565Z,48.50
2023-02-17T07:56:45.899Z,48.64
2023-02-17T07:59:12.303Z,48.56
2023-02-17T08:01:38.628Z,48.51
2023-02-17T08:04:05.005Z,48.66
2023-02-17T08:06:31.347Z,48.87
2023-02-17T08:09:16.428Z,49.24
2023-02-17T08:12:01.676Z,49.05
2023-02-17T08:14:28.745Z,48.45
2023-02-17T08:16:55.205Z,48.47
2023-02-17T08:19:21.532Z,48.44
2023-02-17T08:21:47.933Z,48.21
2023-02-17T08:24:15.346Z,48.32
2023-02-17T08:26:41.675Z,48.22
2023-02-17T08:29:08.013Z,48.15
2023-02-17T08:31:34.752Z,47.99
2023-02-17T08:34:01.676Z,48.03
2023-02-17T08:36:28.003Z,47.92
2023-02-17T08:38:54.647Z,47.91
2023-02-17T08:41:22.204Z,48.28
2023-02-17T08:43:48.542Z,47.86
2023-02-17T08:46:14.972Z,47.94
2023-02-17T08:48:41.471Z,48.07
2023-02-17T08:51:07.807Z,48.42
2023-02-17T08:53:34.188Z,48.21
2023-02-17T08:56:00.689Z,48.35
2023-02-17T08:58:27.144Z,48.69
2023-02-17T09:00:53.505Z,48.54
2023-02-17T09:03:19.921Z,48.62
2023-02-17T09:05:46.247Z,48.46
2023-02-17T09:08:12.634Z,48.48
2023-02-17T09:10:38.980Z,48.79
2023-02-17T09:13:05.330Z,48.55
2023-02-17T09:15:31.784Z,48.39
2023-02-17T09:17:58.192Z,48.74
2023-02-17T09:20:25.545Z,48.44
2023-02-17T09:22:52.478Z,48.73
2023-02-17T09:25:18.959Z,48.61
2023-02-17T09:27:45.303Z,48.96
2023-02-17T09:30:11.935Z,48.98
2023-02-17T09:32:40.565Z,48.77
2023-02-17T09:35:07.430Z,48.91
2023-02-17T09:37:33.802Z,49.12
2023-02-17T09:40:00.272Z,49.11
2023-02-17T09:42:26.725Z,49.09
2023-02-17T09:44:59.824Z,49.14
2023-02-17T09:47:27.164Z,48.96
2023-02-17T09:49:54.351Z,48.99
2023-02-17T09:52:26.506Z,49.02
2023-02-17T09:55:00.794Z,49.19
2023-02-17T09:57:28.191Z,49.13
2023-02-17T09:59:59.109Z,49.11
2023-02-17T10:02:27.653Z,49.19
2023-02-17T10:04:54.126Z,48.92
2023-02-17T10:07:21.558Z,49.26
2023-02-17T10:09:49.549Z,49.08
2023-02-17T10:12:17.959Z,49.08
2023-02-17T10:15:00.977Z,48.92
2023-02-17T10:17:27.246Z,49.04
2023-02-17T10:20:05.555Z,48.83
2023-02-17T10:22:32.069Z,48.86
2023-02-17T10:24:58.658Z,48.76
2023-02-17T10:27:30.020Z,48.83
2023-02-17T10:30:15.123Z,49.00
2023-02-17T10:32:47.244Z,48.82
2023-02-17T10:35:14.313Z,48.88
2023-02-17T10:37:40.663Z,49.08
2023-02-17T10:40:12.624Z,49.15
2023-02-17T10:42:39.010Z,49.01
2023-02-17T10:45:12.860Z,48.92
2023-02-17T10:47:39.219Z,49.33
2023-02-17T10:50:14.786Z,49.16
2023-02-17T10:52:41.350Z,48.88
2023-02-17T10:58:27.749Z,48.69
2023-02-17T11:00:54.437Z,48.48
2023-02-17T11:03:21.085Z,48.40
2023-02-17T11:05:59.994Z,48.58
2023-02-17T11:08:33.944Z,48.73
2023-02-17T11:11:07.225Z,48.73
2023-02-17T11:13:34.959Z,49.02
2023-02-17T11:16:01.348Z,48.89
2023-02-17T11:18:28.323Z,48.82
2023-02-17T11:21:05.303Z,48.84
2023-02-17T11:23:31.721Z,49.17
2023-02-17T11:25:59.544Z,49.32
2023-02-17T11:28:26.221Z,49.29
2023-02-17T11:30:56.769Z,49.12
2023-02-17T11:33:33.716Z,49.42
2023-02-17T11:36:00.148Z,49.25
2023-02-17T11:38:27.705Z,49.25
2023-02-17T11:40:54.999Z,49.24
2023-02-17T11:43:21.364Z,49.20
2023-02-17T11:45:49.938Z,49.68
2023-02-17T11:48:26.008Z,49.32
2023-02-17T11:50:55.468Z,49.81
2023-02-17T11:53:37.360Z,49.13
2023-02-17T11:56:03.671Z,49.58
2023-02-17T11:58:45.832Z,49.10
2023-02-17T12:01:21.461Z,48.99
2023-02-17T12:04:03.140Z,49.22
2023-02-17T12:06:56.005Z,48.99
2023-02-17T12:09:30.156Z,49.20
2023-02-17T12:12:01.302Z,49.16
2023-02-17T12:14:49.934Z,49.30
2023-02-17T12:17:39.496Z,50.38
2023-02-17T12:20:21.326Z,49.60
2023-02-17T12:23:06.384Z,49.53
2023-02-17T12:25:33.493Z,49.63
2023-02-17T12:28:00.046Z,49.53
2023-02-17T12:30:33.223Z,49.65
2023-02-17T12:33:18.336Z,49.48
2023-02-17T12:35:46.347Z,49.61
2023-02-17T12:38:16.738Z,49.68
2023-02-17T12:40:45.049Z,49.58
2023-02-17T12:43:17.499Z,49.59
2023-02-17T12:45:44.178Z,49.44
2023-02-17T12:48:13.512Z,49.36
2023-02-17T12:50:42.168Z,49.49
2023-02-17T12:53:12.526Z,49.37
2023-02-17T12:55:48.429Z,49.33
2023-02-17T12:58:16.334Z,49.45
2023-02-17T13:00:43.937Z,49.28
2023-02-17T13:03:10.266Z,49.35
2023-02-17T13:05:40.832Z,49.59
2023-02-17T13:08:17.445Z,49.60
2023-02-17T13:10:43.779Z,49.80
2023-02-17T13:13:26.337Z,49.80
2023-02-17T13:16:08.766Z,49.74
2023-02-17T13:18:36.142Z,49.98
2023-02-17T13:21:27.584Z,49.71
2023-02-17T13:24:01.207Z,49.88
2023-02-17T13:26:31.899Z,50.00
2023-02-17T13:29:16.757Z,50.00
2023-02-17T13:31:44.548Z,50.00
2023-02-17T13:34:11.415Z,49.88
2023-02-17T13:36:37.976Z,49.93
2023-02-17T13:39:23.243Z,49.78
2023-02-17T13:41:49.571Z,49.68
2023-02-17T13:44:28.732Z,49.94
2023-02-17T13:46:56.994Z,50.01
2023-02-17T13:49:24.748Z,49.90
2023-02-17T13:51:51.124Z,50.00
2023-02-17T13:54:19.789Z,49.93
2023-02-17T13:56:49.543Z,49.93
2023-02-17T13:59:19.617Z,49.93
2023-02-17T14:01:46.066Z,50.06
2023-02-17T14:04:21.374Z,49.93
2023-02-17T14:06:49.708Z,50.25
2023-02-17T14:09:26.341Z,49.99
2023-02-17T14:11:52.785Z,50.09
2023-02-17T14:14:19.107Z,49.59
2023-02-17T14:16:45.485Z,49.61
2023-02-17T14:19:15.682Z,49.47
2023-02-17T14:21:45.543Z,49.56
2023-02-17T14:24:25.332Z,49.87
2023-02-17T14:26:55.072Z,49.74
2023-02-17T14:29:21.412Z,49.98
2023-02-17T14:31:48.683Z,49.66
2023-02-17T14:34:25.654Z,49.62
2023-02-17T14:36:51.978Z,49.74
2023-02-17T14:39:18.318Z,49.52
2023-02-17T14:41:44.691Z,49.59
2023-02-17T14:44:11.013Z,49.99
2023-02-17T14:46:37.493Z,49.87
2023-02-17T14:49:03.926Z,49.89
2023-02-17T14:51:34.252Z,49.72
2023-02-17T14:54:11.414Z,49.75
2023-02-17T14:56:38.239Z,49.84
2023-02-17T14:59:04.653Z,49.56
2023-02-17T15:01:31.089Z,49.70
2023-02-17T15:04:00.772Z,49.94
2023-02-17T15:06:30.799Z,49.60
2023-02-17T15:08:58.573Z,49.73
2023-02-17T15:11:31.520Z,49.73
2023-02-17T15:13:57.871Z,49.64
2023-02-17T15:16:24.229Z,49.68
2023-02-17T15:18:50.970Z,49.74
2023-02-17T15:21:35.195Z,49.96
2023-02-17T15:24:01.591Z,50.11
2023-02-17T15:26:28.247Z,50.04
2023-02-17T15:28:57.045Z,50.12
2023-02-17T15:31:23.874Z,50.08
2023-02-17T15:33:59.458Z,50.20
2023-02-17T15:36:26.081Z,50.13
2023-02-17T15:38:52.415Z,50.13
2023-02-17T15:41:20.297Z,50.15
2023-02-17T15:43:47.123Z,49.97
2023-02-17T15:46:14.044Z,50.21
2023-02-17T15:48:40.406Z,49.93
2023-02-17T15:51:06.730Z,49.76
2023-02-17T15:53:34.407Z,49.89
2023-02-17T15:56:01.307Z,49.81
2023-02-17T15:58:27.702Z,50.04
2023-02-17T16:00:55.908Z,49.75
2023-02-17T16:03:22.372Z,50.10
2023-02-17T16:05:48.733Z,50.02
2023-02-17T16:08:15.085Z,49.88
2023-02-17T16:10:45.256Z,50.34
2023-02-17T16:13:12.581Z,50.13
2023-02-17T16:15:38.905Z,49.95
2023-02-17T16:18:05.275Z,50.06
2023-02-17T16:20:35.133Z,50.03
2023-02-17T16:23:01.560Z,50.13
2023-02-17T16:25:27.959Z,49.85
2023-02-17T16:27:54.338Z,50.04
2023-02-17T16:30:21.821Z,50.02
2023-02-17T16:32:48.179Z,50.41
2023-02-17T16:35:15.246Z,50.32
2023-02-17T16:37:41.813Z,50.38
2023-02-17T16:40:14.958Z,50.33
2023-02-17T16:42:41.322Z,50.78
2023-02-17T16:45:13.108Z,50.49
2023-02-17T16:47:39.432Z,50.41
2023-02-17T16:50:06.464Z,50.39
2023-02-17T16:52:32.780Z,50.29
2023-02-17T16:54:59.196Z,50.42
2023-02-17T16:57:26.390Z,50.44
2023-02-17T16:59:52.733Z,50.35
2023-02-17T17:02:20.731Z,50.21
2023-02-17T17:04:48.014Z,50.31
2023-02-17T17:07:15.945Z,50.15
2023-02-17T17:09:45.239Z,50.09
2023-02-17T17:12:15.223Z,50.17
2023-02-17T17:14:41.548Z,50.21
2023-02-17T17:17:08.709Z,50.07
2023-02-17T17:19:35.035Z,50.46
2023-02-17T17:22:01.370Z,50.37
2023-02-17T17:24:27.696Z,50.17
2023-02-17T17:26:55.782Z,50.08
2023-02-17T17:29:22.110Z,50.21
2023-02-17T17:31:48.548Z,49.99
2023-02-17T17:34:14.942Z,49.94
2023-02-17T17:36:42.085Z,50.04
2023-02-17T17:39:11.005Z,50.06
2023-02-17T17:41:37.315Z,50.09
2023-02-17T17:44:03.655Z,50.05
2023-02-17T17:46:30.638Z,50.05
2023-02-17T17:48:58.752Z,50.34
2023-02-17T17:51:25.184Z,50.17
2023-02-17T17:53:51.622Z,49.99
2023-02-17T17:56:24.560Z,50.25
2023-02-17T17:58:50.925Z,50.12
2023-02-17T18:01:17.322Z,50.24
2023-02-17T18:03:43.710Z,50.43
2023-02-17T18:06:21.203Z,50.25
2023-02-17T18:08:47.541Z,50.41
2023-02-17T18:11:14.335Z,50.15
2023-02-17T18:13:40.733Z,50.17
2023-02-17T18:16:07.418Z,50.12
2023-02-17T18:18:33.873Z,50.09
2023-02-17T18:21:00.221Z,50.02
2023-02-17T18:23:26.555Z,50.06
2023-02-17T18:25:52.882Z,50.18
2023-02-17T18:28:19.199Z,50.03
2023-02-17T18:30:45.629Z,50.14
2023-02-17T18:33:14.399Z,50.39
2023-02-17T18:35:40.877Z,50.46
2023-02-17T18:38:07.213Z,50.41
2023-02-17T18:40:36.906Z,50.20
2023-02-17T18:43:03.243Z,50.57
2023-02-17T18:45:30.012Z,50.45
2023-02-17T18:47:56.348Z,50.39
2023-02-17T18:50:22.744Z,50.40
2023-02-17T18:52:49.126Z,50.24
2023-02-17T18:55:15.475Z,50.29
2023-02-17T18:57:41.806Z,50.51
2023-02-17T19:00:09.612Z,50.35
2023-02-17T19:02:37.132Z,50.51
2023-02-17T19:05:04.079Z,50.45
2023-02-17T19:07:40.431Z,50.25
2023-02-17T19:10:09.747Z,50.56
2023-02-17T19:12:37.407Z,49.80
2023-02-17T19:15:04.129Z,49.77
2023-02-17T19:17:30.464Z,50.19
2023-02-17T19:19:56.817Z,50.53
2023-02-17T19:22:23.161Z,50.15
2023-02-17T19:24:52.753Z,50.36
2023-02-17T19:27:19.103Z,50.13
2023-02-17T19:29:45.433Z,50.25
2023-02-17T19:32:11.815Z,50.72
2023-02-17T19:34:38.448Z,50.50
2023-02-17T19:37:04.862Z,50.97
2023-02-17T19:39:31.364Z,50.83
2023-02-17T19:41:57.699Z,50.38
2023-02-17T19:44:24.023Z,50.66
2023-02-17T19:46:50.360Z,50.51
2023-02-17T19:49:16.758Z,50.50
2023-02-17T19:51:43.091Z,50.43
2023-02-17T19:54:09.455Z,50.49
2023-02-17T19:56:36.383Z,50.28
2023-02-17T19:59:02.702Z,50.19
2023-02-17T20:01:30.142Z,50.08
2023-02-17T20:03:56.636Z,50.13
2023-02-17T20:06:33.055Z,50.19
2023-02-17T20:09:00.180Z,50.12
2023-02-17T20:11:26.603Z,49.98
2023-02-17T20:13:52.955Z,50.17
2023-02-17T20:16:19.331Z,50.08
2023-02-17T20:18:46.583Z,50.08
2023-02-17T20:21:13.706Z,49.99
2023-02-17T20:23:40.029Z,50.00
2023-02-17T20:26:07.614Z,50.01
2023-02-17T20:28:34.126Z,49.96
2023-02-17T20:31:00.767Z,49.98
2023-02-17T20:33:27.126Z,49.91
2023-02-17T20:35:53.476Z,50.07
2023-02-17T20:38:19.807Z,50.13
2023-02-17T20:40:46.146Z,50.00
2023-02-17T20:43:12.496Z,49.87
2023-02-17T20:45:39.051Z,49.93
2023-02-17T20:48:05.632Z,49.94
2023-02-17T20:50:31.997Z,49.88
2023-02-17T20:52:58.383Z,49.88
2023-02-17T20:55:26.956Z,49.71
2023-02-17T20:57:53.929Z,49.94
2023-02-17T21:00:21.134Z,50.02
2023-02-17T21:02:47.582Z,49.93
2023-02-17T21:05:14.076Z,50.13
2023-02-17T21:07:40.404Z,49.96
2023-02-17T21:10:07.284Z,49.96
2023-02-17T21:12:33.680Z,49.90
2023-02-17T21:15:00.072Z,50.15
2023-02-17T21:17:26.419Z,50.02
2023-02-17T21:19:52.747Z,49.99
2023-02-17T21:22:19.067Z,49.87
2023-02-17T21:24:45.393Z,49.74
2023-02-17T21:27:11.871Z,49.94
2023-02-17T21:29:38.272Z,49.82
2023-02-17T21:32:05.466Z,49.74
2023-02-17T21:34:35.199Z,49.74
2023-02-17T21:37:01.533Z,50.02
2023-02-17T21:39:27.847Z,49.83
2023-02-17T21:41:54.230Z,49.96
2023-02-17T21:44:39.049Z,49.92
2023-02-17T21:47:05.788Z,49.91
2023-02-17T21:49:32.111Z,50.01
2023-02-17T21:51:58.467Z,49.95
2023-02-17T21:54:24.790Z,49.83
2023-02-17T21:56:51.146Z,50.01
2023-02-17T21:59:17.478Z,49.83
2023-02-17T22:01:43.803Z,49.77
2023-02-17T22:04:10.168Z,49.81
2023-02-17T22:06:37.115Z,49.89
2023-02-17T22:09:03.658Z,49.83
2023-02-17T22:11:30.823Z,49.81
2023-02-17T22:13:57.561Z,49.76
2023-02-17T22:16:24.048Z,50.06
2023-02-17T22:18:50.470Z,49.74
2023-02-17T22:21:16.793Z,49.72
2023-02-17T22:23:43.182Z,50.04
2023-02-17T22:26:13.717Z,49.93
2023-02-17T22:28:40.031Z,49.87
2023-02-17T22:31:06.422Z,49.74
2023-02-17T22:33:32.888Z,49.91
2023-02-17T22:35:59.871Z,49.78
2023-02-17T22:38:26.189Z,49.72
2023-02-17T22:40:52.515Z,49.66
2023-02-17T22:43:18.836Z,49.83
2023-02-17T22:45:45.219Z,49.82
2023-02-17T22:48:11.586Z,49.54
2023-02-17T22:50:38.482Z,49.54
2023-02-17T22:53:04.807Z,49.58
2023-02-17T22:55:31.136Z,49.52
2023-02-17T22:57:57.482Z,49.48
2023-02-17T23:00:23.860Z,49.64
2023-02-17T23:02:50.180Z,49.82
2023-02-17T23:05:16.754Z,49.89
2023-02-17T23:07:43.087Z,49.86
2023-02-17T23:10:09.467Z,49.78
2023-02-17T23:12:36.449Z,49.78
2023-02-17T23:15:02.797Z,49.74
2023-02-17T23:17:49.093Z,49.71
2023-02-17T23:20:15.425Z,49.57
2023-02-17T23:22:41.746Z,49.66
2023-02-17T23:25:08.088Z,49.48
2023-02-17T23:27:34.410Z,49.55
2023-02-17T23:30:00.800Z,49.55
2023-02-17T23:32:27.288Z,49.58
2023-02-17T23:34:53.622Z,49.49
2023-02-17T23:37:19.942Z,49.50
2023-02-17T23:39:46.273Z,49.47
2023-02-17T23:42:12.646Z,49.23
2023-02-17T23:44:38.973Z,49.29
2023-02-17T23:47:05.300Z,49.37
2023-02-17T23:49:31.623Z,49.31
2023-02-17T23:51:57.963Z,49.21
2023-02-17T23:54:24.949Z,49.25
2023-02-17T23:56:51.289Z,48.81
2023-02-17T23:59:17.708Z,48.97
